sensor_id;sensor_type;location;lat;lon;timestamp;temperature;humidity
48007;DHT22;33771;48.180;11.400;2024-01-30T00:01:19;-1.00;99.90
48007;DHT22;33771;48.180;11.400;2024-01-30T00:03:44;-1.00;99.90
48007;DHT22;33771;48.180;11.400;2024-01-30T00:06:11;-1.00;99.90
48007;DHT22;33771;48.180;11.400;2024-01-30T00:08:37;-1.00;99.90
48007;DHT22;33771;48.180;11.400;2024-01-30T00:11:03;-1.10;99.90
48007;DHT22;33771;48.180;11.400;2024-01-30T00:13:28;-1.10;99.90
48007;DHT22;33771;48.180;11.400;2024-01-30T00:15:54;-1.10;99.90
48007;DHT22;33771;48.180;11.400;2024-01-30T00:18:19;-1.10;99.90
48007;DHT22;33771;48.180;11.400;2024-01-30T00:20:45;-1.20;99.90
48007;DHT22;33771;48.180;11.400;2024-01-30T00:23:10;-1.20;99.90
48007;DHT22;33771;48.180;11.400;2024-01-30T00:25:36;-1.20;99.90
48007;DHT22;33771;48.180;11.400;2024-01-30T00:28:02;-1.20;99.90
48007;DHT22;33771;48.180;11.400;2024-01-30T00:30:27;-1.20;99.90
48007;DHT22;33771;48.180;11.400;2024-01-30T00:32:53;-1.20;99.90
48007;DHT22;33771;48.180;11.400;2024-01-30T00:35:19;-1.20;99.90
48007;DHT22;33771;48.180;11.400;2024-01-30T00:37:47;-1.20;99.90
48007;DHT22;33771;48.180;11.400;2024-01-30T00:40:13;-1.30;99.90
48007;DHT22;33771;48.180;11.400;2024-01-30T00:42:42;-1.30;99.90
48007;DHT22;33771;48.180;11.400;2024-01-30T00:45:15;-1.30;99.90
48007;DHT22;33771;48.180;11.400;2024-01-30T00:47:41;-1.30;99.90
48007;DHT22;33771;48.180;11.400;2024-01-30T00:50:07;-1.30;99.90
48007;DHT22;33771;48.180;11.400;2024-01-30T00:52:32;-1.30;99.90
48007;DHT22;33771;48.180;11.400;2024-01-30T00:54:59;-1.30;99.90
48007;DHT22;33771;48.180;11.400;2024-01-30T00:57:24;-1.40;99.90
48007;DHT22;33771;48.180;11.400;2024-01-30T00:59:50;-1.30;99.90
48007;DHT22;33771;48.180;11.400;2024-01-30T01:02:15;-1.40;99.90
48007;DHT22;33771;48.180;11.400;2024-01-30T01:04:43;-1.40;99.90
48007;DHT22;33771;48.180;11.400;2024-01-30T01:07:08;-1.40;99.90
48007;DHT22;33771;48.180;11.400;2024-01-30T01:09:34;-1.40;99.90
48007;DHT22;33771;48.180;11.400;2024-01-30T01:11:59;-1.40;99.90
48007;DHT22;33771;48.180;11.400;2024-01-30T01:14:25;-1.40;99.90
48007;DHT22;33771;48.180;11.400;2024-01-30T01:16:50;-1.40;99.90
48007;DHT22;33771;48.180;11.400;2024-01-30T01:19:16;-1.50;99.90
48007;DHT22;33771;48.180;11.400;2024-01-30T01:21:41;-1.50;99.90
48007;DHT22;33771;48.180;11.400;2024-01-30T01:24:07;-1.40;99.90
48007;DHT22;33771;48.180;11.400;2024-01-30T01:26:33;-1.50;99.90
48007;DHT22;33771;48.180;11.400;2024-01-30T01:28:59;-1.50;99.90
48007;DHT22;33771;48.180;11.400;2024-01-30T01:31:24;-1.50;99.90
48007;DHT22;33771;48.180;11.400;2024-01-30T01:33:50;-1.50;99.90
48007;DHT22;33771;48.180;11.400;2024-01-30T01:36:16;-1.50;99.90
48007;DHT22;33771;48.180;11.400;2024-01-30T01:38:41;-1.50;99.90
48007;DHT22;33771;48.180;11.400;2024-01-30T01:41:07;-1.50;99.90
48007;DHT22;33771;48.180;11.400;2024-01-30T01:43:32;-1.50;99.90
48007;DHT22;33771;48.180;11.400;2024-01-30T01:45:58;-1.50;99.90
48007;DHT22;33771;48.180;11.400;2024-01-30T01:48:23;-1.60;99.90
48007;DHT22;33771;48.180;11.400;2024-01-30T01:50:49;-1.60;99.90
48007;DHT22;33771;48.180;11.400;2024-01-30T01:53:15;-1.60;99.90
48007;DHT22;33771;48.180;11.400;2024-01-30T01:55:42;-1.60;99.90
48007;DHT22;33771;48.180;11.400;2024-01-30T01:58:07;-1.60;99.90
48007;DHT22;33771;48.180;11.400;2024-01-30T02:00:34;-1.60;99.90
48007;DHT22;33771;48.180;11.400;2024-01-30T02:03:02;-1.60;99.90
48007;DHT22;33771;48.180;11.400;2024-01-30T02:05:29;-1.60;99.90
48007;DHT22;33771;48.180;11.400;2024-01-30T02:07:56;-1.60;99.90
48007;DHT22;33771;48.180;11.400;2024-01-30T02:10:21;-1.60;99.90
48007;DHT22;33771;48.180;11.400;2024-01-30T02:12:48;-1.70;99.90
48007;DHT22;33771;48.180;11.400;2024-01-30T02:15:13;-1.70;99.90
48007;DHT22;33771;48.180;11.400;2024-01-30T02:17:39;-1.70;99.90
48007;DHT22;33771;48.180;11.400;2024-01-30T02:20:05;-1.70;99.90
48007;DHT22;33771;48.180;11.400;2024-01-30T02:22:32;-1.70;99.90
48007;DHT22;33771;48.180;11.400;2024-01-30T02:24:59;-1.70;99.90
48007;DHT22;33771;48.180;11.400;2024-01-30T02:27:24;-1.80;99.90
48007;DHT22;33771;48.180;11.400;2024-01-30T02:29:50;-1.80;99.90
48007;DHT22;33771;48.180;11.400;2024-01-30T02:32:16;-1.80;99.90
48007;DHT22;33771;48.180;11.400;2024-01-30T02:34:41;-1.80;99.90
48007;DHT22;33771;48.180;11.400;2024-01-30T02:37:07;-1.80;99.90
48007;DHT22;33771;48.180;11.400;2024-01-30T02:39:32;-1.80;99.90
48007;DHT22;33771;48.180;11.400;2024-01-30T02:41:58;-1.80;99.90
48007;DHT22;33771;48.180;11.400;2024-01-30T02:44:23;-1.80;99.90
48007;DHT22;33771;48.180;11.400;2024-01-30T02:46:49;-1.80;99.90
48007;DHT22;33771;48.180;11.400;2024-01-30T02:49:15;-1.90;99.90
48007;DHT22;33771;48.180;11.400;2024-01-30T02:51:40;-1.80;99.90
48007;DHT22;33771;48.180;11.400;2024-01-30T02:54:06;-1.80;99.90
48007;DHT22;33771;48.180;11.400;2024-01-30T02:56:31;-1.90;99.90
48007;DHT22;33771;48.180;11.400;2024-01-30T02:58:57;-1.90;99.90
48007;DHT22;33771;48.180;11.400;2024-01-30T03:01:22;-1.90;99.90
48007;DHT22;33771;48.180;11.400;2024-01-30T03:03:49;-1.90;99.90
48007;DHT22;33771;48.180;11.400;2024-01-30T03:06:15;-1.90;99.90
48007;DHT22;33771;48.180;11.400;2024-01-30T03:08:42;-1.90;99.90
48007;DHT22;33771;48.180;11.400;2024-01-30T03:11:08;-1.90;99.90
48007;DHT22;33771;48.180;11.400;2024-01-30T03:13:33;-1.90;99.90
48007;DHT22;33771;48.180;11.400;2024-01-30T03:15:59;-1.90;99.90
48007;DHT22;33771;48.180;11.400;2024-01-30T03:18:24;-1.90;99.90
48007;DHT22;33771;48.180;11.400;2024-01-30T03:20:50;-1.90;99.90
48007;DHT22;33771;48.180;11.400;2024-01-30T03:23:16;-1.90;99.90
48007;DHT22;33771;48.180;11.400;2024-01-30T03:25:41;-1.90;99.90
48007;DHT22;33771;48.180;11.400;2024-01-30T03:28:07;-1.80;99.90
48007;DHT22;33771;48.180;11.400;2024-01-30T03:30:33;-1.90;99.90
48007;DHT22;33771;48.180;11.400;2024-01-30T03:32:59;-1.90;99.90
48007;DHT22;33771;48.180;11.400;2024-01-30T03:35:24;-1.90;99.90
48007;DHT22;33771;48.180;11.400;2024-01-30T03:37:50;-1.90;99.90
48007;DHT22;33771;48.180;11.400;2024-01-30T03:40:16;-1.90;99.90
48007;DHT22;33771;48.180;11.400;2024-01-30T03:42:41;-1.90;99.90
48007;DHT22;33771;48.180;11.400;2024-01-30T03:45:07;-1.90;99.90
48007;DHT22;33771;48.180;11.400;2024-01-30T03:47:33;-1.90;99.90
48007;DHT22;33771;48.180;11.400;2024-01-30T03:49:58;-2.00;99.90
48007;DHT22;33771;48.180;11.400;2024-01-30T03:52:24;-2.00;99.90
48007;DHT22;33771;48.180;11.400;2024-01-30T03:54:49;-1.90;99.90
48007;DHT22;33771;48.180;11.400;2024-01-30T03:57:15;-1.90;99.90
48007;DHT22;33771;48.180;11.400;2024-01-30T03:59:43;-1.90;99.90
48007;DHT22;33771;48.180;11.400;2024-01-30T04:02:10;-1.90;99.90
48007;DHT22;33771;48.180;11.400;2024-01-30T04:04:36;-1.90;99.90
48007;DHT22;33771;48.180;11.400;2024-01-30T04:07:02;-1.90;99.90
48007;DHT22;33771;48.180;11.400;2024-01-30T04:09:28;-1.90;99.90
48007;DHT22;33771;48.180;11.400;2024-01-30T04:11:54;-1.90;99.90
48007;DHT22;33771;48.180;11.400;2024-01-30T04:14:19;-1.90;99.90
48007;DHT22;33771;48.180;11.400;2024-01-30T04:16:45;-1.90;99.90
48007;DHT22;33771;48.180;11.400;2024-01-30T04:19:10;-1.90;99.90
48007;DHT22;33771;48.180;11.400;2024-01-30T04:21:36;-1.90;99.90
48007;DHT22;33771;48.180;11.400;2024-01-30T04:24:01;-1.90;99.90
48007;DHT22;33771;48.180;11.400;2024-01-30T04:26:27;-1.90;99.90
48007;DHT22;33771;48.180;11.400;2024-01-30T04:28:53;-1.90;99.90
48007;DHT22;33771;48.180;11.400;2024-01-30T04:31:18;-1.90;99.90
48007;DHT22;33771;48.180;11.400;2024-01-30T04:33:44;-1.80;99.90
48007;DHT22;33771;48.180;11.400;2024-01-30T04:36:09;-1.80;99.90
48007;DHT22;33771;48.180;11.400;2024-01-30T04:38:40;-1.80;99.90
48007;DHT22;33771;48.180;11.400;2024-01-30T04:41:06;-1.90;99.90
48007;DHT22;33771;48.180;11.400;2024-01-30T04:43:32;-1.90;99.90
48007;DHT22;33771;48.180;11.400;2024-01-30T04:45:57;-1.90;99.90
48007;DHT22;33771;48.180;11.400;2024-01-30T04:48:23;-1.90;99.90
48007;DHT22;33771;48.180;11.400;2024-01-30T04:50:48;-2.00;99.90
48007;DHT22;33771;48.180;11.400;2024-01-30T04:53:14;-2.00;99.90
48007;DHT22;33771;48.180;11.400;2024-01-30T04:55:39;-2.00;99.90
48007;DHT22;33771;48.180;11.400;2024-01-30T04:58:05;-2.00;99.90
48007;DHT22;33771;48.180;11.400;2024-01-30T05:00:30;-2.00;99.90
48007;DHT22;33771;48.180;11.400;2024-01-30T05:02:56;-2.00;99.90
48007;DHT22;33771;48.180;11.400;2024-01-30T05:05:21;-2.00;99.90
48007;DHT22;33771;48.180;11.400;2024-01-30T05:07:47;-2.00;99.90
48007;DHT22;33771;48.180;11.400;2024-01-30T05:10:13;-2.00;99.90
48007;DHT22;33771;48.180;11.400;2024-01-30T05:12:39;-2.00;99.90
48007;DHT22;33771;48.180;11.400;2024-01-30T05:15:05;-2.00;99.90
48007;DHT22;33771;48.180;11.400;2024-01-30T05:17:31;-2.00;99.90
48007;DHT22;33771;48.180;11.400;2024-01-30T05:19:57;-2.00;99.90
48007;DHT22;33771;48.180;11.400;2024-01-30T05:22:22;-2.00;99.90
48007;DHT22;33771;48.180;11.400;2024-01-30T05:24:48;-2.00;99.90
48007;DHT22;33771;48.180;11.400;2024-01-30T05:27:13;-2.00;99.90
48007;DHT22;33771;48.180;11.400;2024-01-30T05:29:39;-2.00;99.90
48007;DHT22;33771;48.180;11.400;2024-01-30T05:32:06;-2.00;99.90
48007;DHT22;33771;48.180;11.400;2024-01-30T05:34:31;-1.90;99.90
48007;DHT22;33771;48.180;11.400;2024-01-30T05:36:57;-1.90;99.90
48007;DHT22;33771;48.180;11.400;2024-01-30T05:39:22;-1.90;99.90
48007;DHT22;33771;48.180;11.400;2024-01-30T05:41:48;-2.00;99.90
48007;DHT22;33771;48.180;11.400;2024-01-30T05:44:14;-2.00;99.90
48007;DHT22;33771;48.180;11.400;2024-01-30T05:46:39;-2.00;99.90
48007;DHT22;33771;48.180;11.400;2024-01-30T05:49:05;-2.00;99.90
48007;DHT22;33771;48.180;11.400;2024-01-30T05:51:31;-2.10;99.90
48007;DHT22;33771;48.180;11.400;2024-01-30T05:53:56;-2.10;99.90
48007;DHT22;33771;48.180;11.400;2024-01-30T05:56:22;-2.10;99.90
48007;DHT22;33771;48.180;11.400;2024-01-30T05:58:48;-2.10;99.90
48007;DHT22;33771;48.180;11.400;2024-01-30T06:01:15;-2.10;99.90
48007;DHT22;33771;48.180;11.400;2024-01-30T06:03:41;-2.10;99.90
48007;DHT22;33771;48.180;11.400;2024-01-30T06:06:08;-2.10;99.90
48007;DHT22;33771;48.180;11.400;2024-01-30T06:08:34;-2.00;99.90
48007;DHT22;33771;48.180;11.400;2024-01-30T06:10:59;-2.00;99.90
48007;DHT22;33771;48.180;11.400;2024-01-30T06:13:26;-2.00;99.90
48007;DHT22;33771;48.180;11.400;2024-01-30T06:15:51;-2.00;99.90
48007;DHT22;33771;48.180;11.400;2024-01-30T06:18:17;-2.00;99.90
48007;DHT22;33771;48.180;11.400;2024-01-30T06:20:43;-2.00;99.90
48007;DHT22;33771;48.180;11.400;2024-01-30T06:23:08;-2.00;99.90
48007;DHT22;33771;48.180;11.400;2024-01-30T06:25:34;-2.00;99.90
48007;DHT22;33771;48.180;11.400;2024-01-30T06:27:59;-2.10;99.90
48007;DHT22;33771;48.180;11.400;2024-01-30T06:30:25;-2.10;99.90
48007;DHT22;33771;48.180;11.400;2024-01-30T06:32:51;-2.10;99.90
48007;DHT22;33771;48.180;11.400;2024-01-30T06:35:16;-2.10;99.90
48007;DHT22;33771;48.180;11.400;2024-01-30T06:37:43;-2.10;99.90
48007;DHT22;33771;48.180;11.400;2024-01-30T06:40:08;-2.10;99.90
48007;DHT22;33771;48.180;11.400;2024-01-30T06:42:34;-2.10;99.90
48007;DHT22;33771;48.180;11.400;2024-01-30T06:45:00;-2.10;99.90
48007;DHT22;33771;48.180;11.400;2024-01-30T06:47:25;-2.10;99.90
48007;DHT22;33771;48.180;11.400;2024-01-30T06:49:51;-2.10;99.90
48007;DHT22;33771;48.180;11.400;2024-01-30T06:52:16;-2.10;99.90
48007;DHT22;33771;48.180;11.400;2024-01-30T06:54:42;-2.10;99.90
48007;DHT22;33771;48.180;11.400;2024-01-30T06:57:08;-2.10;99.90
48007;DHT22;33771;48.180;11.400;2024-01-30T06:59:37;-2.10;99.90
48007;DHT22;33771;48.180;11.400;2024-01-30T07:02:03;-2.10;99.90
48007;DHT22;33771;48.180;11.400;2024-01-30T07:04:28;-2.00;99.90
48007;DHT22;33771;48.180;11.400;2024-01-30T07:06:54;-2.00;99.90
48007;DHT22;33771;48.180;11.400;2024-01-30T07:09:19;-2.00;99.90
48007;DHT22;33771;48.180;11.400;2024-01-30T07:11:45;-2.00;99.90
48007;DHT22;33771;48.180;11.400;2024-01-30T07:14:11;-2.00;99.90
48007;DHT22;33771;48.180;11.400;2024-01-30T07:16:36;-1.90;99.90
48007;DHT22;33771;48.180;11.400;2024-01-30T07:19:02;-1.90;99.90
48007;DHT22;33771;48.180;11.400;2024-01-30T07:21:28;-1.90;99.90
48007;DHT22;33771;48.180;11.400;2024-01-30T07:23:56;-1.80;99.90
48007;DHT22;33771;48.180;11.400;2024-01-30T07:26:22;-1.80;99.90
48007;DHT22;33771;48.180;11.400;2024-01-30T07:28:48;-1.80;99.90
48007;DHT22;33771;48.180;11.400;2024-01-30T07:31:13;-1.70;99.90
48007;DHT22;33771;48.180;11.400;2024-01-30T07:33:39;-1.70;99.90
48007;DHT22;33771;48.180;11.400;2024-01-30T07:36:05;-1.60;99.90
48007;DHT22;33771;48.180;11.400;2024-01-30T07:38:33;-1.60;99.90
48007;DHT22;33771;48.180;11.400;2024-01-30T07:40:59;-1.60;99.90
48007;DHT22;33771;48.180;11.400;2024-01-30T07:43:25;-1.50;99.90
48007;DHT22;33771;48.180;11.400;2024-01-30T07:45:51;-1.50;99.90
48007;DHT22;33771;48.180;11.400;2024-01-30T07:48:16;-1.50;99.90
48007;DHT22;33771;48.180;11.400;2024-01-30T07:50:42;-1.50;99.90
48007;DHT22;33771;48.180;11.400;2024-01-30T07:53:08;-1.40;99.90
48007;DHT22;33771;48.180;11.400;2024-01-30T07:55:33;-1.40;99.90
48007;DHT22;33771;48.180;11.400;2024-01-30T07:57:59;-1.30;99.90
48007;DHT22;33771;48.180;11.400;2024-01-30T08:00:26;-1.20;99.90
48007;DHT22;33771;48.180;11.400;2024-01-30T08:02:51;-1.20;99.90
48007;DHT22;33771;48.180;11.400;2024-01-30T08:05:19;-1.10;99.90
48007;DHT22;33771;48.180;11.400;2024-01-30T08:07:47;-1.00;99.90
48007;DHT22;33771;48.180;11.400;2024-01-30T08:10:14;-1.00;99.90
48007;DHT22;33771;48.180;11.400;2024-01-30T08:12:40;-0.90;99.90
48007;DHT22;33771;48.180;11.400;2024-01-30T08:15:06;-0.80;99.90
48007;DHT22;33771;48.180;11.400;2024-01-30T08:17:31;-0.70;99.90
48007;DHT22;33771;48.180;11.400;2024-01-30T08:19:57;-0.70;99.90
48007;DHT22;33771;48.180;11.400;2024-01-30T08:22:23;-0.60;99.90
48007;DHT22;33771;48.180;11.400;2024-01-30T08:24:48;-0.50;99.90
48007;DHT22;33771;48.180;11.400;2024-01-30T08:27:14;-0.40;99.90
48007;DHT22;33771;48.180;11.400;2024-01-30T08:29:40;-0.30;99.90
48007;DHT22;33771;48.180;11.400;2024-01-30T08:32:06;-0.20;99.90
48007;DHT22;33771;48.180;11.400;2024-01-30T08:34:31;-0.10;99.90
48007;DHT22;33771;48.180;11.400;2024-01-30T08:36:57;0.10;99.90
48007;DHT22;33771;48.180;11.400;2024-01-30T08:39:23;0.20;99.90
48007;DHT22;33771;48.180;11.400;2024-01-30T08:41:48;0.40;99.90
48007;DHT22;33771;48.180;11.400;2024-01-30T08:44:14;0.60;99.90
48007;DHT22;33771;48.180;11.400;2024-01-30T08:46:39;0.80;99.90
48007;DHT22;33771;48.180;11.400;2024-01-30T08:49:05;1.00;99.90
48007;DHT22;33771;48.180;11.400;2024-01-30T08:51:31;1.20;99.90
48007;DHT22;33771;48.180;11.400;2024-01-30T08:53:56;1.40;99.90
48007;DHT22;33771;48.180;11.400;2024-01-30T08:56:22;1.60;99.90
48007;DHT22;33771;48.180;11.400;2024-01-30T08:58:47;1.70;99.90
48007;DHT22;33771;48.180;11.400;2024-01-30T09:01:14;1.90;99.90
48007;DHT22;33771;48.180;11.400;2024-01-30T09:03:39;2.10;99.90
48007;DHT22;33771;48.180;11.400;2024-01-30T09:06:09;2.30;99.90
48007;DHT22;33771;48.180;11.400;2024-01-30T09:08:35;2.50;99.90
48007;DHT22;33771;48.180;11.400;2024-01-30T09:11:08;2.60;99.90
48007;DHT22;33771;48.180;11.400;2024-01-30T09:13:34;2.70;99.90
48007;DHT22;33771;48.180;11.400;2024-01-30T09:15:59;2.80;99.90
48007;DHT22;33771;48.180;11.400;2024-01-30T09:18:25;3.00;99.90
48007;DHT22;33771;48.180;11.400;2024-01-30T09:20:50;3.10;99.90
48007;DHT22;33771;48.180;11.400;2024-01-30T09:23:16;3.20;99.90
48007;DHT22;33771;48.180;11.400;2024-01-30T09:25:44;3.30;99.90
48007;DHT22;33771;48.180;11.400;2024-01-30T09:28:09;3.50;99.90
48007;DHT22;33771;48.180;11.400;2024-01-30T09:30:35;3.60;99.90
48007;DHT22;33771;48.180;11.400;2024-01-30T09:33:00;3.70;99.90
48007;DHT22;33771;48.180;11.400;2024-01-30T09:35:26;3.80;99.90
48007;DHT22;33771;48.180;11.400;2024-01-30T09:37:51;3.90;99.90
48007;DHT22;33771;48.180;11.400;2024-01-30T09:40:18;4.10;99.90
48007;DHT22;33771;48.180;11.400;2024-01-30T09:42:46;4.20;99.90
48007;DHT22;33771;48.180;11.400;2024-01-30T09:45:14;4.30;99.90
48007;DHT22;33771;48.180;11.400;2024-01-30T09:47:41;4.40;99.90
48007;DHT22;33771;48.180;11.400;2024-01-30T09:50:14;4.50;99.90
48007;DHT22;33771;48.180;11.400;2024-01-30T09:52:40;4.60;99.90
48007;DHT22;33771;48.180;11.400;2024-01-30T09:55:07;4.70;99.90
48007;DHT22;33771;48.180;11.400;2024-01-30T09:57:33;4.80;99.90
48007;DHT22;33771;48.180;11.400;2024-01-30T09:59:59;4.80;99.90
48007;DHT22;33771;48.180;11.400;2024-01-30T10:02:24;4.90;99.90
48007;DHT22;33771;48.180;11.400;2024-01-30T10:04:51;5.00;99.90
48007;DHT22;33771;48.180;11.400;2024-01-30T10:07:20;5.10;99.90
48007;DHT22;33771;48.180;11.400;2024-01-30T10:09:46;5.20;99.90
48007;DHT22;33771;48.180;11.400;2024-01-30T10:12:12;5.30;99.90
48007;DHT22;33771;48.180;11.400;2024-01-30T10:14:41;5.50;99.90
48007;DHT22;33771;48.180;11.400;2024-01-30T10:17:11;5.60;99.90
48007;DHT22;33771;48.180;11.400;2024-01-30T10:19:38;5.70;99.90
48007;DHT22;33771;48.180;11.400;2024-01-30T10:22:04;5.90;99.90
48007;DHT22;33771;48.180;11.400;2024-01-30T10:24:30;6.10;99.90
48007;DHT22;33771;48.180;11.400;2024-01-30T10:26:56;6.20;99.90
48007;DHT22;33771;48.180;11.400;2024-01-30T10:29:22;6.20;99.90
48007;DHT22;33771;48.180;11.400;2024-01-30T10:32:04;6.40;99.90
48007;DHT22;33771;48.180;11.400;2024-01-30T10:34:30;6.60;99.90
48007;DHT22;33771;48.180;11.400;2024-01-30T10:37:06;6.60;99.90
48007;DHT22;33771;48.180;11.400;2024-01-30T10:39:32;6.70;99.90
48007;DHT22;33771;48.180;11.400;2024-01-30T10:42:04;6.90;99.90
48007;DHT22;33771;48.180;11.400;2024-01-30T10:44:33;7.00;99.90
48007;DHT22;33771;48.180;11.400;2024-01-30T10:47:03;7.20;99.90
48007;DHT22;33771;48.180;11.400;2024-01-30T10:49:30;7.20;99.90
48007;DHT22;33771;48.180;11.400;2024-01-30T10:51:57;7.40;99.90
48007;DHT22;33771;48.180;11.400;2024-01-30T10:54:23;7.50;99.90
48007;DHT22;33771;48.180;11.400;2024-01-30T10:56:50;7.60;99.90
48007;DHT22;33771;48.180;11.400;2024-01-30T10:59:16;7.80;99.90
48007;DHT22;33771;48.180;11.400;2024-01-30T11:01:41;8.00;99.90
48007;DHT22;33771;48.180;11.400;2024-01-30T11:04:08;8.10;99.90
48007;DHT22;33771;48.180;11.400;2024-01-30T11:06:40;8.30;99.90
48007;DHT22;33771;48.180;11.400;2024-01-30T11:09:09;8.50;99.90
48007;DHT22;33771;48.180;11.400;2024-01-30T11:11:51;8.60;99.90
48007;DHT22;33771;48.180;11.400;2024-01-30T11:14:22;8.80;99.90
48007;DHT22;33771;48.180;11.400;2024-01-30T11:16:48;8.90;99.90
48007;DHT22;33771;48.180;11.400;2024-01-30T11:19:14;9.00;99.90
48007;DHT22;33771;48.180;11.400;2024-01-30T11:21:42;9.10;99.90
48007;DHT22;33771;48.180;11.400;2024-01-30T11:24:08;9.20;99.90
48007;DHT22;33771;48.180;11.400;2024-01-30T11:26:33;9.30;99.90
48007;DHT22;33771;48.180;11.400;2024-01-30T11:29:03;9.30;99.90
48007;DHT22;33771;48.180;11.400;2024-01-30T11:31:28;9.40;99.90
48007;DHT22;33771;48.180;11.400;2024-01-30T11:33:54;9.50;99.90
48007;DHT22;33771;48.180;11.400;2024-01-30T11:36:20;9.70;99.90
48007;DHT22;33771;48.180;11.400;2024-01-30T11:38:47;9.90;99.90
48007;DHT22;33771;48.180;11.400;2024-01-30T11:41:13;10.10;99.90
48007;DHT22;33771;48.180;11.400;2024-01-30T11:43:39;10.20;99.90
48007;DHT22;33771;48.180;11.400;2024-01-30T11:46:05;10.40;99.90
48007;DHT22;33771;48.180;11.400;2024-01-30T11:48:31;10.50;99.90
48007;DHT22;33771;48.180;11.400;2024-01-30T11:50:57;10.60;99.90
48007;DHT22;33771;48.180;11.400;2024-01-30T11:53:22;10.70;99.90
48007;DHT22;33771;48.180;11.400;2024-01-30T11:55:50;10.90;99.90
48007;DHT22;33771;48.180;11.400;2024-01-30T11:58:16;11.00;99.90
48007;DHT22;33771;48.180;11.400;2024-01-30T12:00:42;11.10;99.90
48007;DHT22;33771;48.180;11.400;2024-01-30T12:03:08;11.20;99.90
48007;DHT22;33771;48.180;11.400;2024-01-30T12:05:33;11.30;99.90
48007;DHT22;33771;48.180;11.400;2024-01-30T12:07:59;11.30;99.90
48007;DHT22;33771;48.180;11.400;2024-01-30T12:10:24;11.40;99.90
48007;DHT22;33771;48.180;11.400;2024-01-30T12:12:51;11.50;99.90
48007;DHT22;33771;48.180;11.400;2024-01-30T12:15:17;11.60;99.90
48007;DHT22;33771;48.180;11.400;2024-01-30T12:17:43;11.60;99.90
48007;DHT22;33771;48.180;11.400;2024-01-30T12:20:09;11.70;99.90
48007;DHT22;33771;48.180;11.400;2024-01-30T12:22:36;11.60;99.90
48007;DHT22;33771;48.180;11.400;2024-01-30T12:25:24;11.60;99.90
48007;DHT22;33771;48.180;11.400;2024-01-30T12:27:49;11.70;99.90
48007;DHT22;33771;48.180;11.400;2024-01-30T12:30:15;11.60;99.90
48007;DHT22;33771;48.180;11.400;2024-01-30T12:32:41;11.80;99.90
48007;DHT22;33771;48.180;11.400;2024-01-30T12:35:10;11.90;99.90
48007;DHT22;33771;48.180;11.400;2024-01-30T12:37:36;11.90;99.90
48007;DHT22;33771;48.180;11.400;2024-01-30T12:40:03;12.10;99.90
48007;DHT22;33771;48.180;11.400;2024-01-30T12:42:29;12.10;99.90
48007;DHT22;33771;48.180;11.400;2024-01-30T12:44:56;12.20;99.90
48007;DHT22;33771;48.180;11.400;2024-01-30T12:47:22;12.30;99.90
48007;DHT22;33771;48.180;11.400;2024-01-30T12:49:47;12.30;99.90
48007;DHT22;33771;48.180;11.400;2024-01-30T12:52:16;12.40;99.90
48007;DHT22;33771;48.180;11.400;2024-01-30T12:54:41;12.50;99.90
48007;DHT22;33771;48.180;11.400;2024-01-30T12:57:07;12.40;99.90
48007;DHT22;33771;48.180;11.400;2024-01-30T12:59:32;12.40;99.90
48007;DHT22;33771;48.180;11.400;2024-01-30T13:01:59;12.40;99.90
48007;DHT22;33771;48.180;11.400;2024-01-30T13:04:25;12.50;99.90
48007;DHT22;33771;48.180;11.400;2024-01-30T13:06:50;12.50;99.90
48007;DHT22;33771;48.180;11.400;2024-01-30T13:09:16;12.50;99.90
48007;DHT22;33771;48.180;11.400;2024-01-30T13:11:41;12.60;99.90
48007;DHT22;33771;48.180;11.400;2024-01-30T13:14:07;12.70;99.90
48007;DHT22;33771;48.180;11.400;2024-01-30T13:16:32;12.70;99.90
48007;DHT22;33771;48.180;11.400;2024-01-30T13:18:58;12.80;99.90
48007;DHT22;33771;48.180;11.400;2024-01-30T13:21:23;12.80;99.90
48007;DHT22;33771;48.180;11.400;2024-01-30T13:23:49;12.80;99.90
48007;DHT22;33771;48.180;11.400;2024-01-30T13:26:18;12.70;99.90
48007;DHT22;33771;48.180;11.400;2024-01-30T13:28:44;12.60;99.90
48007;DHT22;33771;48.180;11.400;2024-01-30T13:31:09;12.60;99.90
48007;DHT22;33771;48.180;11.400;2024-01-30T13:33:34;12.50;99.90
48007;DHT22;33771;48.180;11.400;2024-01-30T13:36:00;12.50;99.90
48007;DHT22;33771;48.180;11.400;2024-01-30T13:38:25;12.40;99.90
48007;DHT22;33771;48.180;11.400;2024-01-30T13:40:51;12.30;99.90
48007;DHT22;33771;48.180;11.400;2024-01-30T13:43:17;12.20;99.90
48007;DHT22;33771;48.180;11.400;2024-01-30T13:45:43;12.20;99.90
48007;DHT22;33771;48.180;11.400;2024-01-30T13:48:08;12.20;99.90
48007;DHT22;33771;48.180;11.400;2024-01-30T13:50:34;12.10;99.90
48007;DHT22;33771;48.180;11.400;2024-01-30T13:52:59;12.10;99.90
48007;DHT22;33771;48.180;11.400;2024-01-30T13:55:25;12.00;99.90
48007;DHT22;33771;48.180;11.400;2024-01-30T13:57:50;12.00;99.90
48007;DHT22;33771;48.180;11.400;2024-01-30T14:00:17;11.90;99.90
48007;DHT22;33771;48.180;11.400;2024-01-30T14:02:43;11.90;99.90
48007;DHT22;33771;48.180;11.400;2024-01-30T14:05:08;11.80;99.90
48007;DHT22;33771;48.180;11.400;2024-01-30T14:07:35;11.70;99.90
48007;DHT22;33771;48.180;11.400;2024-01-30T14:10:01;11.60;99.90
48007;DHT22;33771;48.180;11.400;2024-01-30T14:12:26;11.50;99.90
48007;DHT22;33771;48.180;11.400;2024-01-30T14:14:52;11.40;99.90
48007;DHT22;33771;48.180;11.400;2024-01-30T14:17:17;11.30;99.90
48007;DHT22;33771;48.180;11.400;2024-01-30T14:19:42;11.30;99.90
48007;DHT22;33771;48.180;11.400;2024-01-30T14:22:08;11.20;99.90
48007;DHT22;33771;48.180;11.400;2024-01-30T14:24:33;11.20;99.90
48007;DHT22;33771;48.180;11.400;2024-01-30T14:26:59;11.10;99.90
48007;DHT22;33771;48.180;11.400;2024-01-30T14:29:25;11.10;99.90
48007;DHT22;33771;48.180;11.400;2024-01-30T14:31:51;11.00;99.90
48007;DHT22;33771;48.180;11.400;2024-01-30T14:34:16;11.00;99.90
48007;DHT22;33771;48.180;11.400;2024-01-30T14:36:42;11.00;99.90
48007;DHT22;33771;48.180;11.400;2024-01-30T14:39:08;10.90;99.90
48007;DHT22;33771;48.180;11.400;2024-01-30T14:41:33;10.90;99.90
48007;DHT22;33771;48.180;11.400;2024-01-30T14:43:59;10.80;99.90
48007;DHT22;33771;48.180;11.400;2024-01-30T14:46:24;10.90;99.90
48007;DHT22;33771;48.180;11.400;2024-01-30T14:48:52;10.80;99.90
48007;DHT22;33771;48.180;11.400;2024-01-30T14:51:17;10.80;99.90
48007;DHT22;33771;48.180;11.400;2024-01-30T14:53:43;10.80;99.90
48007;DHT22;33771;48.180;11.400;2024-01-30T14:56:08;10.70;99.90
48007;DHT22;33771;48.180;11.400;2024-01-30T14:58:34;10.70;99.90
48007;DHT22;33771;48.180;11.400;2024-01-30T15:00:59;10.70;99.90
48007;DHT22;33771;48.180;11.400;2024-01-30T15:03:26;10.70;99.90
48007;DHT22;33771;48.180;11.400;2024-01-30T15:05:52;10.60;99.90
48007;DHT22;33771;48.180;11.400;2024-01-30T15:08:19;10.60;99.90
48007;DHT22;33771;48.180;11.400;2024-01-30T15:10:45;10.50;99.90
48007;DHT22;33771;48.180;11.400;2024-01-30T15:13:11;10.40;99.90